createdAt,value
2023-02-28T00:00:36.905Z,42.13
2023-02-28T00:03:04.055Z,42.19
2023-02-28T00:05:30.719Z,42.32
2023-02-28T00:07:57.382Z,42.13
2023-02-28T00:10:28.977Z,42.10
2023-02-28T00:12:57.936Z,42.47
2023-02-28T00:15:25.146Z,42.31
2023-02-28T00:17:53.033Z,42.17
2023-02-28T00:20:20.315Z,42.22
2023-02-28T00:22:49.904Z,42.04
2023-02-28T00:25:18.993Z,41.98
2023-02-28T00:27:46.336Z,42.12
2023-02-28T00:30:18.634Z,42.08
2023-02-28T00:32:45.453Z,41.92
2023-02-28T00:35:12.268Z,41.94
2023-02-28T00:37:39.346Z,42.11
2023-02-28T00:40:07.364Z,42.30
2023-02-28T00:42:36.825Z,41.90
2023-02-28T00:45:06.946Z,42.01
2023-02-28T00:47:33.549Z,42.17
2023-02-28T00:50:00.528Z,42.22
2023-02-28T00:52:27.390Z,42.02
2023-02-28T00:54:54.102Z,42.01
2023-02-28T00:57:20.775Z,42.10
2023-02-28T00:59:47.426Z,41.94
2023-02-28T01:02:14.070Z,42.03
2023-02-28T01:04:40.790Z,41.99
2023-02-28T01:07:07.433Z,42.00
2023-02-28T01:09:34.030Z,42.10
2023-02-28T01:12:00.590Z,41.93
2023-02-28T01:14:27.204Z,41.74
2023-02-28T01:16:53.821Z,42.04
2023-02-28T01:19:22.740Z,42.00
2023-02-28T01:21:49.305Z,41.90
2023-02-28T01:24:16.038Z,42.05
2023-02-28T01:26:42.598Z,41.89
2023-02-28T01:29:09.255Z,42.25
2023-02-28T01:31:36.111Z,42.09
2023-02-28T01:34:03.021Z,41.99
2023-02-28T01:36:29.958Z,41.95
2023-02-28T01:38:56.688Z,42.20
2023-02-28T01:41:26.267Z,42.09
2023-02-28T01:44:09.493Z,42.15
2023-02-28T01:46:37.004Z,42.11
2023-02-28T01:49:16.071Z,42.12
2023-02-28T01:51:51.731Z,41.98
2023-02-28T01:54:23.713Z,42.17
2023-02-28T01:56:58.281Z,42.16
2023-02-28T01:59:49.930Z,41.84
2023-02-28T02:02:18.274Z,42.19
2023-02-28T02:04:56.577Z,41.94
2023-02-28T02:07:24.750Z,42.06
2023-02-28T02:09:51.654Z,42.09
2023-02-28T02:12:43.889Z,42.25
2023-02-28T02:15:16.842Z,42.20
2023-02-28T02:17:47.427Z,42.21
2023-02-28T02:20:17.002Z,42.18
2023-02-28T02:23:09.296Z,42.14
2023-02-28T02:26:10.603Z,42.02
2023-02-28T02:28:55.091Z,41.97
2023-02-28T02:31:34.606Z,42.01
2023-02-28T02:34:32.180Z,42.32
2023-02-28T02:37:17.292Z,41.98
2023-02-28T02:39:46.905Z,41.92
2023-02-28T02:42:17.668Z,42.10
2023-02-28T02:44:49.147Z,42.17
2023-02-28T02:47:21.925Z,42.12
2023-02-28T02:49:52.934Z,41.99
2023-02-28T02:52:23.387Z,42.29
2023-02-28T02:54:56.393Z,42.38
2023-02-28T02:57:38.966Z,42.22
2023-02-28T03:00:09.712Z,42.28
2023-02-28T03:02:38.188Z,41.99
2023-02-28T03:05:16.397Z,42.05
2023-02-28T03:07:42.972Z,41.98
2023-02-28T03:10:27.899Z,42.07
2023-02-28T03:13:05.374Z,42.13
2023-02-28T03:16:01.221Z,42.24
2023-02-28T03:18:42.673Z,42.26
2023-02-28T03:21:32.528Z,42.22
2023-02-28T03:24:14.306Z,42.25
2023-02-28T03:26:43.861Z,42.19
2023-02-28T03:29:35.460Z,42.11
2023-02-28T03:32:09.197Z,42.15
2023-02-28T03:34:40.200Z,42.06
2023-02-28T03:37:17.373Z,42.10
2023-02-28T03:39:51.561Z,42.30
2023-02-28T03:42:30.816Z,42.30
2023-02-28T03:45:00.693Z,42.19
2023-02-28T03:47:40.892Z,41.98
2023-02-28T03:50:16.226Z,42.08
2023-02-28T03:52:50.767Z,42.32
2023-02-28T03:55:18.318Z,42.08
2023-02-28T03:57:59.972Z,42.17
2023-02-28T04:00:34.210Z,42.10
2023-02-28T04:03:00.794Z,42.34
2023-02-28T04:05:27.922Z,42.28
2023-02-28T04:07:55.184Z,42.03
2023-02-28T04:10:22.000Z,42.40
2023-02-28T04:12:48.585Z,41.99
2023-02-28T04:15:15.257Z,42.22
2023-02-28T04:17:41.887Z,42.30
2023-02-28T04:20:10.670Z,42.25
2023-02-28T04:22:38.074Z,42.27
2023-02-28T04:25:05.324Z,42.30
2023-02-28T04:27:32.792Z,41.97
2023-02-28T04:29:59.462Z,42.31
2023-02-28T04:32:26.156Z,42.19
2023-02-28T04:34:52.826Z,42.19
2023-02-28T04:37:19.467Z,42.28
2023-02-28T04:39:46.106Z,42.39
2023-02-28T04:42:13.330Z,42.34
2023-02-28T04:44:39.916Z,42.35
2023-02-28T04:47:06.737Z,42.14
2023-02-28T04:49:33.380Z,42.26
2023-02-28T04:52:00.026Z,42.12
2023-02-28T04:54:26.635Z,42.21
2023-02-28T04:56:53.314Z,42.17
2023-02-28T04:59:19.913Z,42.20
2023-02-28T05:01:48.679Z,42.29
2023-02-28T05:04:15.311Z,42.20
2023-02-28T05:06:41.905Z,42.21
2023-02-28T05:09:08.470Z,42.15
2023-02-28T05:11:36.039Z,42.20
2023-02-28T05:14:08.320Z,42.15
2023-02-28T05:16:35.013Z,42.05
2023-02-28T05:19:01.768Z,42.63
2023-02-28T05:21:39.864Z,42.14
2023-02-28T05:24:10.994Z,42.21
2023-02-28T05:26:39.890Z,42.25
2023-02-28T05:29:06.611Z,42.08
2023-02-28T05:31:33.916Z,42.27
2023-02-28T05:34:00.778Z,42.29
2023-02-28T05:36:27.543Z,42.14
2023-02-28T05:38:54.260Z,42.10
2023-02-28T05:41:21.381Z,42.25
2023-02-28T05:43:48.348Z,42.40
2023-02-28T05:46:15.404Z,42.66
2023-02-28T05:48:43.244Z,42.34
2023-02-28T05:51:12.869Z,42.14
2023-02-28T05:53:39.485Z,42.29
2023-02-28T05:56:06.385Z,42.33
2023-02-28T05:58:33.135Z,42.33
2023-02-28T06:01:00.451Z,42.35
2023-02-28T06:03:27.765Z,42.27
2023-02-28T06:05:54.524Z,42.36
2023-02-28T06:08:21.129Z,42.10
2023-02-28T06:10:47.803Z,42.37
2023-02-28T06:13:14.379Z,42.27
2023-02-28T06:15:41.576Z,42.37
2023-02-28T06:18:08.151Z,42.40
2023-02-28T06:20:35.522Z,42.39
2023-02-28T06:23:02.137Z,42.22
2023-02-28T06:25:28.965Z,42.30
2023-02-28T06:27:56.277Z,42.20
2023-02-28T06:30:29.258Z,42.30
2023-02-28T06:32:55.964Z,42.21
2023-02-28T06:35:23.357Z,42.24
2023-02-28T06:37:50.016Z,42.15
2023-02-28T06:40:16.728Z,42.14
2023-02-28T06:42:43.623Z,42.19
2023-02-28T06:45:11.509Z,42.35
2023-02-28T06:47:42.924Z,42.17
2023-02-28T06:50:11.434Z,42.52
2023-02-28T06:52:38.444Z,42.20
2023-02-28T06:55:06.616Z,42.28
2023-02-28T06:57:34.568Z,42.30
2023-02-28T07:00:03.882Z,42.30
2023-02-28T07:02:30.462Z,42.52
2023-02-28T07:04:57.077Z,42.41
2023-02-28T07:07:23.719Z,42.26
2023-02-28T07:09:50.313Z,42.31
2023-02-28T07:12:16.918Z,42.39
2023-02-28T07:14:44.122Z,42.67
2023-02-28T07:17:13.026Z,42.34
2023-02-28T07:19:40.650Z,42.10
2023-02-28T07:22:08.137Z,41.87
2023-02-28T07:24:34.983Z,41.90
2023-02-28T07:27:02.553Z,41.82
2023-02-28T07:29:29.529Z,41.69
2023-02-28T07:31:56.213Z,41.74
2023-02-28T07:34:23.358Z,41.58
2023-02-28T07:36:54.420Z,41.54
2023-02-28T07:39:22.612Z,41.44
2023-02-28T07:41:49.222Z,41.39
2023-02-28T07:44:15.866Z,41.50
2023-02-28T07:46:42.673Z,41.51
2023-02-28T07:49:09.269Z,41.52
2023-02-28T07:51:35.882Z,41.36
2023-02-28T07:54:02.741Z,41.32
2023-02-28T07:56:29.728Z,41.50
2023-02-28T07:58:56.538Z,41.43
2023-02-28T08:01:23.257Z,41.51
2023-02-28T08:03:49.884Z,41.44
2023-02-28T08:06:22.066Z,41.80
2023-02-28T08:08:49.124Z,41.63
2023-02-28T08:11:16.914Z,41.48
2023-02-28T08:13:45.125Z,41.60
2023-02-28T08:16:12.502Z,41.49
2023-02-28T08:18:39.143Z,41.43
2023-02-28T08:21:10.232Z,41.72
2023-02-28T08:23:37.259Z,41.83
2023-02-28T08:26:04.599Z,41.79
2023-02-28T08:28:31.412Z,41.74
2023-02-28T08:30:59.052Z,41.82
2023-02-28T08:33:26.628Z,41.50
2023-02-28T08:35:57.037Z,41.73
2023-02-28T08:38:24.723Z,41.69
2023-02-28T08:40:57.683Z,41.77
2023-02-28T08:43:24.260Z,41.89
2023-02-28T08:45:57.931Z,41.88
2023-02-28T08:48:25.789Z,41.93
2023-02-28T08:51:28.383Z,41.80
2023-02-28T08:53:56.972Z,41.80
2023-02-28T08:56:23.559Z,41.98
2023-02-28T08:58:51.308Z,41.88
2023-02-28T09:01:20.182Z,41.82
2023-02-28T09:03:48.253Z,41.69
2023-02-28T09:06:16.080Z,41.94
2023-02-28T09:08:42.975Z,41.92
2023-02-28T09:11:10.516Z,41.84
2023-02-28T09:13:37.278Z,41.76
2023-02-28T09:16:06.105Z,41.86
2023-02-28T09:18:32.819Z,41.72
2023-02-28T09:20:59.410Z,42.07
2023-02-28T09:23:26.248Z,42.04
2023-02-28T09:25:55.357Z,41.94
2023-02-28T09:28:22.696Z,42.04
2023-02-28T09:30:54.661Z,41.92
2023-02-28T09:33:22.358Z,41.86
2023-02-28T09:35:50.256Z,42.02
2023-02-28T09:38:17.618Z,41.79
2023-02-28T09:40:48.626Z,42.02
2023-02-28T09:43:16.716Z,41.90
2023-02-28T09:45:45.250Z,42.20
2023-02-28T09:48:17.907Z,42.21
2023-02-28T09:50:49.860Z,42.52
2023-02-28T09:53:28.171Z,42.72
2023-02-28T09:56:10.455Z,42.47
2023-02-28T09:58:52.109Z,42.54
2023-02-28T10:01:30.986Z,42.46
2023-02-28T10:04:35.334Z,42.60
2023-02-28T10:07:06.076Z,42.34
2023-02-28T10:09:34.010Z,42.56
2023-02-28T10:12:06.839Z,42.24
2023-02-28T10:14:35.359Z,42.19
2023-02-28T10:17:11.555Z,42.74
2023-02-28T10:19:55.293Z,42.54
2023-02-28T10:22:22.595Z,42.65
2023-02-28T10:24:52.540Z,42.81
2023-02-28T10:27:24.025Z,42.67
2023-02-28T10:29:52.325Z,42.45
2023-02-28T10:32:21.040Z,42.60
2023-02-28T10:34:54.094Z,42.67
2023-02-28T10:37:21.010Z,42.76
2023-02-28T10:39:48.026Z,42.55
2023-02-28T10:42:31.930Z,42.48
2023-02-28T10:45:16.348Z,42.52
2023-02-28T10:47:57.903Z,42.45
2023-02-28T10:50:34.875Z,42.54
2023-02-28T10:53:22.967Z,42.60
2023-02-28T10:56:10.438Z,42.47
2023-02-28T11:01:49.874Z,41.98
2023-02-28T11:04:30.313Z,42.02
2023-02-28T11:07:01.766Z,42.04
2023-02-28T11:09:39.961Z,41.88
2023-02-28T11:12:20.369Z,43.52
2023-02-28T11:14:58.412Z,44.01
2023-02-28T11:17:28.007Z,43.71
2023-02-28T11:19:57.386Z,43.93
2023-02-28T11:22:29.745Z,44.02
2023-02-28T11:25:00.906Z,44.37
2023-02-28T11:27:34.798Z,44.13
2023-02-28T11:30:01.799Z,43.79
2023-02-28T11:32:31.429Z,43.97
2023-02-28T11:35:04.677Z,44.02
2023-02-28T11:37:32.665Z,43.66
2023-02-28T11:39:59.221Z,43.46
2023-02-28T11:42:37.911Z,43.44
2023-02-28T11:45:26.886Z,43.08
2023-02-28T11:48:03.794Z,43.01
2023-02-28T11:50:36.311Z,42.88
2023-02-28T11:53:22.978Z,42.76
2023-02-28T11:56:18.412Z,43.04
2023-02-28T11:58:54.033Z,42.97
2023-02-28T12:01:25.946Z,42.93
2023-02-28T12:03:55.364Z,42.98
2023-02-28T12:06:59.122Z,42.83
2023-02-28T12:09:49.907Z,42.77
2023-02-28T12:12:54.717Z,42.45
2023-02-28T12:15:25.952Z,42.47
2023-02-28T12:17:56.240Z,42.54
2023-02-28T12:20:39.376Z,42.45
2023-02-28T12:23:21.077Z,42.80
2023-02-28T12:26:24.762Z,42.82
2023-02-28T12:29:12.857Z,43.05
2023-02-28T12:31:49.428Z,43.07
2023-02-28T12:34:21.596Z,43.68
2023-02-28T12:36:48.803Z,43.44
2023-02-28T12:39:24.968Z,43.77
2023-02-28T12:41:51.470Z,43.79
2023-02-28T12:44:28.150Z,43.82
2023-02-28T12:46:58.010Z,43.55
2023-02-28T12:49:50.936Z,43.56
2023-02-28T12:52:24.597Z,43.60
2023-02-28T12:55:35.894Z,43.44
2023-02-28T12:58:26.884Z,43.76
2023-02-28T13:01:05.546Z,43.46
2023-02-28T13:03:53.673Z,43.07
2023-02-28T13:06:44.822Z,42.81
2023-02-28T13:09:16.635Z,42.75
2023-02-28T13:11:53.959Z,42.71
2023-02-28T13:14:31.399Z,42.42
2023-02-28T13:17:10.000Z,42.09
2023-02-28T13:19:39.087Z,42.03
2023-02-28T13:22:06.388Z,42.15
2023-02-28T13:24:48.182Z,42.34
2023-02-28T13:27:17.388Z,42.61
2023-02-28T13:29:45.470Z,42.67
2023-02-28T13:32:12.025Z,42.66
2023-02-28T13:34:46.571Z,42.37
2023-02-28T13:37:19.089Z,42.40
2023-02-28T13:39:51.412Z,42.06
2023-02-28T13:42:27.427Z,42.30
2023-02-28T13:45:02.965Z,42.29
2023-02-28T13:48:04.732Z,42.19
2023-02-28T13:50:38.944Z,42.08
2023-02-28T13:53:14.798Z,42.06
2023-02-28T13:55:50.024Z,42.09
2023-02-28T13:58:34.924Z,41.88
2023-02-28T14:01:46.259Z,42.03
2023-02-28T14:04:47.701Z,42.24
2023-02-28T14:07:48.075Z,42.15
2023-02-28T14:10:35.798Z,41.61
2023-02-28T14:13:11.647Z,41.80
2023-02-28T14:15:48.393Z,41.85
2023-02-28T14:18:36.817Z,41.68
2023-02-28T14:21:03.386Z,41.44
2023-02-28T14:23:35.904Z,41.41
2023-02-28T14:26:08.161Z,41.47
2023-02-28T14:28:46.890Z,41.27
2023-02-28T14:31:20.512Z,41.44
2023-02-28T14:33:56.194Z,41.25
2023-02-28T14:36:27.645Z,41.38
2023-02-28T14:38:58.171Z,41.37
2023-02-28T14:41:39.301Z,41.41
2023-02-28T14:44:32.953Z,41.82
2023-02-28T14:47:07.114Z,41.67
2023-02-28T14:49:38.681Z,41.54
2023-02-28T14:52:12.958Z,41.49
2023-02-28T14:54:40.734Z,41.27
2023-02-28T14:57:07.464Z,41.64
2023-02-28T14:59:36.317Z,41.50
2023-02-28T15:02:22.060Z,41.50
2023-02-28T15:05:02.865Z,41.62
2023-02-28T15:07:29.646Z,41.70
2023-02-28T15:10:22.247Z,41.43
2023-02-28T15:13:22.473Z,41.56
2023-02-28T15:16:02.407Z,41.42
2023-02-28T15:18:41.331Z,41.45
2023-02-28T15:21:12.755Z,41.67
2023-02-28T15:23:41.621Z,41.12
2023-02-28T15:26:08.402Z,41.16
2023-02-28T15:28:35.024Z,41.47
2023-02-28T15:31:24.152Z,41.23
2023-02-28T15:33:55.807Z,41.32
2023-02-28T15:36:26.085Z,41.46
2023-02-28T15:38:53.247Z,41.29
2023-02-28T15:41:25.914Z,41.33
2023-02-28T15:44:27.848Z,41.46
2023-02-28T15:47:03.951Z,41.65
2023-02-28T15:49:45.067Z,41.41
2023-02-28T15:52:15.825Z,41.62
2023-02-28T15:54:43.840Z,41.51
2023-02-28T15:57:22.821Z,41.30
2023-02-28T15:59:55.746Z,41.71
2023-02-28T16:02:35.281Z,41.36
2023-02-28T16:05:03.390Z,41.57
2023-02-28T16:07:30.400Z,41.73
2023-02-28T16:09:57.033Z,42.15
2023-02-28T16:12:31.168Z,41.84
2023-02-28T16:14:59.792Z,41.71
2023-02-28T16:17:28.374Z,41.54
2023-02-28T16:19:55.428Z,41.55
2023-02-28T16:22:22.365Z,41.76
2023-02-28T16:24:49.228Z,41.56
2023-02-28T16:27:20.190Z,41.52
2023-02-28T16:29:47.193Z,41.43
2023-02-28T16:32:16.254Z,41.67
2023-02-28T16:34:44.414Z,41.48
2023-02-28T16:37:13.319Z,41.68
2023-02-28T16:39:40.538Z,41.58
2023-02-28T16:42:07.584Z,41.39
2023-02-28T16:44:37.169Z,41.29
2023-02-28T16:47:05.169Z,41.77
2023-02-28T16:49:31.947Z,41.61
2023-02-28T16:51:58.562Z,41.92
2023-02-28T16:54:25.624Z,41.53
2023-02-28T16:56:52.203Z,42.00
2023-02-28T16:59:23.594Z,42.17
2023-02-28T17:01:51.484Z,42.38
2023-02-28T17:04:18.791Z,42.47
2023-02-28T17:06:45.411Z,42.54
2023-02-28T17:09:39.986Z,42.25
2023-02-28T17:12:09.240Z,42.15
2023-02-28T17:14:36.095Z,42.05
2023-02-28T17:17:02.698Z,41.79
2023-02-28T17:19:29.259Z,42.56
2023-02-28T17:21:55.860Z,42.37
2023-02-28T17:24:30.901Z,42.51
2023-02-28T17:26:58.113Z,42.31
2023-02-28T17:29:25.506Z,42.04
2023-02-28T17:31:52.405Z,42.22
2023-02-28T17:34:20.617Z,41.94
2023-02-28T17:36:48.514Z,42.20
2023-02-28T17:39:20.725Z,42.06
2023-02-28T17:41:47.467Z,42.34
2023-02-28T17:44:14.091Z,42.13
2023-02-28T17:46:40.916Z,42.42
2023-02-28T17:49:07.480Z,42.14
2023-02-28T17:51:34.043Z,42.11
2023-02-28T17:54:00.874Z,42.09
2023-02-28T17:56:28.431Z,42.39
2023-02-28T17:58:56.881Z,42.11
2023-02-28T18:01:26.331Z,42.34
2023-02-28T18:03:53.980Z,42.50
2023-02-28T18:06:25.969Z,42.42
2023-02-28T18:08:52.854Z,43.34
2023-02-28T18:11:20.707Z,42.90
2023-02-28T18:13:52.212Z,42.63
2023-02-28T18:16:20.360Z,42.42
2023-02-28T18:18:46.936Z,42.45
2023-02-28T18:21:15.106Z,42.49
2023-02-28T18:23:47.857Z,42.79
2023-02-28T18:26:16.465Z,42.54
2023-02-28T18:28:44.586Z,42.55
2023-02-28T18:31:15.449Z,42.66
2023-02-28T18:33:43.241Z,42.71
2023-02-28T18:36:10.438Z,42.72
2023-02-28T18:38:37.637Z,43.08
2023-02-28T18:41:05.890Z,42.77
2023-02-28T18:43:34.385Z,42.89
2023-02-28T18:46:09.182Z,42.77
2023-02-28T18:48:36.075Z,43.02
2023-02-28T18:51:09.085Z,43.10
2023-02-28T18:53:36.874Z,43.06
2023-02-28T18:56:04.250Z,43.03
2023-02-28T18:58:31.731Z,42.44
2023-02-28T19:00:58.347Z,42.27
2023-02-28T19:03:24.952Z,42.16
2023-02-28T19:05:56.741Z,42.18
2023-02-28T19:08:24.182Z,41.90
2023-02-28T19:10:50.810Z,41.91
2023-02-28T19:13:17.906Z,41.57
2023-02-28T19:15:44.508Z,41.46
2023-02-28T19:18:11.167Z,41.55
2023-02-28T19:20:37.735Z,41.62
2023-02-28T19:23:04.293Z,41.71
2023-02-28T19:25:31.177Z,41.59
2023-02-28T19:27:58.025Z,41.64
2023-02-28T19:30:25.966Z,41.79
2023-02-28T19:32:52.678Z,41.93
2023-02-28T19:35:19.334Z,41.61
2023-02-28T19:37:45.888Z,42.11
2023-02-28T19:40:13.810Z,42.08
2023-02-28T19:42:40.390Z,42.04
2023-02-28T19:45:10.032Z,41.72
2023-02-28T19:47:36.708Z,41.88
2023-02-28T19:50:03.429Z,41.89
2023-02-28T19:52:30.013Z,42.00
2023-02-28T19:54:56.620Z,41.89
2023-02-28T19:57:23.258Z,41.95
2023-02-28T19:59:51.180Z,41.90
2023-02-28T20:02:20.018Z,42.32
2023-02-28T20:04:48.642Z,42.27
2023-02-28T20:07:20.401Z,42.44
2023-02-28T20:09:48.119Z,42.32
2023-02-28T20:12:24.063Z,42.29
2023-02-28T20:14:51.306Z,42.64
2023-02-28T20:17:18.005Z,42.26
2023-02-28T20:19:44.565Z,42.51
2023-02-28T20:22:11.185Z,42.51
2023-02-28T20:24:37.755Z,42.42
2023-02-28T20:27:04.407Z,42.63
2023-02-28T20:29:31.046Z,42.70
2023-02-28T20:31:57.903Z,42.57
2023-02-28T20:34:25.260Z,42.54
2023-02-28T20:36:51.999Z,42.54
2023-02-28T20:39:18.599Z,42.72
2023-02-28T20:41:45.307Z,42.55
2023-02-28T20:44:12.909Z,42.73
2023-02-28T20:46:41.323Z,42.82
2023-02-28T20:49:08.024Z,42.64
2023-02-28T20:51:34.710Z,42.49
2023-02-28T20:54:01.265Z,42.55
2023-02-28T20:56:28.155Z,42.47
2023-02-28T20:58:58.141Z,42.42
2023-02-28T21:01:27.206Z,42.37
2023-02-28T21:03:56.222Z,42.54
2023-02-28T21:06:28.710Z,42.36
2023-02-28T21:08:56.766Z,42.47
2023-02-28T21:11:32.367Z,42.26
2023-02-28T21:14:01.252Z,42.37
2023-02-28T21:16:29.703Z,42.78
2023-02-28T21:18:56.605Z,42.65
2023-02-28T21:21:24.620Z,42.58
2023-02-28T21:23:52.631Z,42.41
2023-02-28T21:26:22.427Z,42.48
2023-02-28T21:28:57.048Z,42.78
2023-02-28T21:31:25.290Z,42.81
2023-02-28T21:33:56.439Z,42.86
2023-02-28T21:36:26.146Z,42.72
2023-02-28T21:38:58.343Z,43.24
2023-02-28T21:41:25.749Z,43.21
2023-02-28T21:43:53.302Z,43.27
2023-02-28T21:46:22.766Z,43.58
2023-02-28T21:48:50.957Z,43.48
2023-02-28T21:51:26.692Z,43.04
2023-02-28T21:53:54.116Z,43.21
2023-02-28T21:56:25.698Z,43.25
2023-02-28T21:59:00.244Z,43.01
2023-02-28T22:01:30.346Z,43.13
2023-02-28T22:03:58.751Z,42.99
2023-02-28T22:06:28.802Z,43.09
2023-02-28T22:08:57.679Z,43.32
2023-02-28T22:11:25.750Z,43.26
2023-02-28T22:13:53.707Z,43.08
2023-02-28T22:16:20.956Z,43.18
2023-02-28T22:18:47.784Z,43.01
2023-02-28T22:21:15.752Z,43.08
2023-02-28T22:23:43.045Z,43.11
2023-02-28T22:26:11.510Z,43.25
2023-02-28T22:28:38.523Z,43.31
2023-02-28T22:31:16.831Z,43.16
2023-02-28T22:33:44.758Z,43.34
2023-02-28T22:36:12.988Z,43.27
2023-02-28T22:38:39.863Z,43.33
2023-02-28T22:41:07.027Z,43.29
2023-02-28T22:43:34.110Z,43.21
2023-02-28T22:46:06.619Z,42.81
2023-02-28T22:48:34.648Z,43.00
2023-02-28T22:51:12.977Z,43.25
2023-02-28T22:53:39.608Z,43.17
2023-02-28T22:56:06.862Z,42.85
2023-02-28T22:58:33.531Z,43.16
2023-02-28T23:01:14.319Z,43.14
2023-02-28T23:03:41.910Z,42.82
2023-02-28T23:06:14.117Z,42.87
2023-02-28T23:08:41.434Z,42.83
2023-02-28T23:11:08.016Z,43.11
2023-02-28T23:13:34.632Z,42.91
2023-02-28T23:16:04.702Z,42.86
2023-02-28T23:18:31.266Z,42.69
2023-02-28T23:20:57.864Z,43.01
2023-02-28T23:23:24.428Z,42.68
2023-02-28T23:25:51.009Z,42.86
2023-02-28T23:28:17.575Z,43.09
2023-02-28T23:30:44.151Z,42.83
2023-02-28T23:33:10.700Z,43.02
2023-02-28T23:35:37.299Z,42.87
2023-02-28T23:38:03.907Z,42.86
2023-02-28T23:40:30.491Z,43.03
2023-02-28T23:42:57.078Z,42.97
2023-02-28T23:45:23.717Z,43.02
2023-02-28T23:47:50.311Z,43.04
2023-02-28T23:50:17.091Z,42.68
2023-02-28T23:52:43.795Z,43.03
2023-02-28T23:55:10.835Z,42.88
2023-02-28T23:57:37.420Z,42.75
